Time;durP1;ratioP1;P1;durP2;ratioP2;P2;SDS_P1;SDS_P2;PMS_P1;PMS_P2;Temp;Humidity;BMP_temperature;BMP_pressure;BME280_temperature;BME280_humidity;BME280_pressure;Samples;Min_cycle;Max_cycle;Signal;HPM_P1;HPM_P2
2024/01/25 00:00:44;;;;;;;2.42;1.23;;;22.90;47.20;;;;;;5107474;28;20785;-33
2024/01/25 00:03:10;;;;;;;1.50;1.40;;;22.90;47.20;;;;;;5110762;28;20036;-38
2024/01/25 00:05:36;;;;;;;1.80;1.40;;;23.00;47.40;;;;;;5112162;28;20030;-37
2024/01/25 00:08:03;;;;;;;1.60;1.30;;;23.00;47.30;;;;;;5113791;28;20870;-35
2024/01/25 00:10:29;;;;;;;1.37;1.20;;;22.90;47.30;;;;;;5112112;28;20043;-34
2024/01/25 00:12:55;;;;;;;1.20;1.10;;;22.90;47.30;;;;;;5111080;28;20054;-38
2024/01/25 00:15:22;;;;;;;1.45;1.23;;;22.90;47.30;;;;;;5116118;28;20041;-37
2024/01/25 00:17:48;;;;;;;1.40;1.10;;;22.90;47.20;;;;;;5114763;28;20032;-37
2024/01/25 00:20:14;;;;;;;1.73;1.20;;;22.90;47.20;;;;;;5120240;28;20031;-38
2024/01/25 00:22:41;;;;;;;2.45;1.10;;;22.90;47.20;;;;;;5117713;28;20759;-35
2024/01/25 00:25:07;;;;;;;1.25;1.02;;;22.90;47.00;;;;;;5111388;28;20032;-36
2024/01/25 00:27:33;;;;;;;1.45;1.30;;;22.90;47.10;;;;;;5118158;28;20035;-37
2024/01/25 00:30:00;;;;;;;3.45;1.40;;;23.00;47.50;;;;;;5123264;28;20035;-35
2024/01/25 00:32:26;;;;;;;4.70;1.30;;;22.90;47.50;;;;;;5122161;28;20091;-32
2024/01/25 00:34:52;;;;;;;4.63;1.20;;;22.90;48.00;;;;;;5123243;28;20043;-37
2024/01/25 00:37:19;;;;;;;5.80;1.52;;;22.90;47.70;;;;;;5119721;28;20027;-33
2024/01/25 00:39:45;;;;;;;3.40;1.30;;;22.90;48.00;;;;;;5116515;27;20036;-36
2024/01/25 00:42:12;;;;;;;2.87;1.50;;;22.90;47.90;;;;;;5117900;28;20024;-34
2024/01/25 00:44:39;;;;;;;7.20;1.50;;;22.90;48.00;;;;;;5113218;28;20119;-35
2024/01/25 00:47:05;;;;;;;7.23;1.60;;;22.90;48.00;;;;;;5114508;28;20038;-36
2024/01/25 00:49:32;;;;;;;2.95;1.02;;;22.90;48.20;;;;;;5113065;28;20801;-32
2024/01/25 00:52:02;;;;;;;1.43;1.13;;;22.90;47.80;;;;;;5116031;28;20046;-34
2024/01/25 00:54:28;;;;;;;4.65;1.30;;;22.90;47.90;;;;;;5115677;28;20296;-36
2024/01/25 00:56:55;;;;;;;1.55;1.30;;;22.90;47.50;;;;;;5115423;28;20781;-36
2024/01/25 00:59:21;;;;;;;1.40;1.20;;;22.90;47.60;;;;;;5116117;28;20038;-36
2024/01/25 01:01:48;;;;;;;1.60;1.20;;;22.90;47.80;;;;;;5114553;28;20786;-33
2024/01/25 01:04:15;;;;;;;1.40;1.23;;;22.90;47.80;;;;;;5116292;27;20047;-35
2024/01/25 01:06:41;;;;;;;3.08;1.30;;;22.90;47.70;;;;;;5115109;28;20036;-36
2024/01/25 01:09:07;;;;;;;1.30;1.20;;;22.90;47.90;;;;;;5113722;28;20051;-35
2024/01/25 01:11:34;;;;;;;1.50;1.40;;;22.80;47.90;;;;;;5113900;28;20308;-36
2024/01/25 01:14:00;;;;;;;4.22;1.50;;;22.80;47.90;;;;;;5120224;28;20024;-37
2024/01/25 01:16:26;;;;;;;1.20;1.10;;;22.80;47.90;;;;;;5109568;27;20020;-36
2024/01/25 01:18:52;;;;;;;1.83;1.07;;;22.80;47.70;;;;;;5115030;28;20049;-35
2024/01/25 01:21:20;;;;;;;1.42;1.30;;;22.80;47.70;;;;;;5111951;28;20024;-35
2024/01/25 01:23:47;;;;;;;1.48;1.38;;;22.90;47.50;;;;;;5111132;28;20134;-35
2024/01/25 01:26:13;;;;;;;1.95;1.63;;;22.90;47.80;;;;;;5117259;28;20512;-36
2024/01/25 01:28:39;;;;;;;1.63;1.45;;;22.90;47.80;;;;;;5121020;28;20051;-33
2024/01/25 01:31:05;;;;;;;1.30;1.20;;;22.90;47.80;;;;;;5115083;28;20031;-35
2024/01/25 01:33:31;;;;;;;1.30;1.20;;;22.80;47.70;;;;;;5110773;28;20028;-37
2024/01/25 01:35:57;;;;;;;1.80;1.25;;;22.80;47.80;;;;;;5107667;28;20027;-36
2024/01/25 01:38:23;;;;;;;2.10;1.30;;;22.80;47.80;;;;;;5114847;28;20027;-37
2024/01/25 01:40:50;;;;;;;1.35;1.25;;;22.80;47.80;;;;;;5116688;28;20031;-33
2024/01/25 01:43:23;;;;;;;1.30;1.20;;;22.80;47.80;;;;;;5114824;27;20028;-36
2024/01/25 01:45:49;;;;;;;1.55;1.45;;;22.80;47.70;;;;;;5118196;28;20032;-36
2024/01/25 01:48:16;;;;;;;1.30;1.20;;;22.80;47.60;;;;;;5115025;27;20027;-33
2024/01/25 01:50:46;;;;;;;2.67;1.60;;;22.80;47.60;;;;;;5128678;27;20047;-46
2024/01/25 01:53:12;;;;;;;2.88;1.45;;;22.80;48.60;;;;;;5118486;27;20031;-42
2024/01/25 01:55:38;;;;;;;2.15;1.75;;;22.80;48.70;;;;;;5111373;28;20028;-42
2024/01/25 01:58:05;;;;;;;2.93;1.53;;;22.80;48.80;;;;;;5115221;28;20028;-42
2024/01/25 02:00:31;;;;;;;5.18;1.50;;;22.80;49.10;;;;;;5117662;28;20081;-42
2024/01/25 02:02:57;;;;;;;1.83;1.40;;;22.80;49.00;;;;;;5114615;28;20559;-42
2024/01/25 02:05:24;;;;;;;2.15;1.45;;;22.80;49.10;;;;;;5113500;28;20166;-42
2024/01/25 02:07:51;;;;;;;3.17;1.33;;;22.80;49.10;;;;;;5114482;28;20024;-42
2024/01/25 02:10:18;;;;;;;1.20;1.10;;;22.80;48.70;;;;;;5115228;27;20054;-41
2024/01/25 02:12:44;;;;;;;1.98;1.30;;;22.80;48.50;;;;;;5115438;28;20055;-42
2024/01/25 02:15:10;;;;;;;3.00;1.33;;;22.80;48.50;;;;;;5115512;28;20052;-42
2024/01/25 02:17:37;;;;;;;1.30;1.20;;;22.80;48.70;;;;;;5114151;28;20042;-41
2024/01/25 02:20:03;;;;;;;1.98;1.70;;;22.80;48.60;;;;;;5113432;28;20043;-42
2024/01/25 02:22:30;;;;;;;3.35;1.40;;;22.90;48.50;;;;;;5114518;28;20579;-42
2024/01/25 02:24:56;;;;;;;1.55;1.30;;;22.90;48.70;;;;;;5114229;28;20039;-41
2024/01/25 02:27:22;;;;;;;1.45;1.30;;;22.90;48.50;;;;;;5115395;28;20042;-41
2024/01/25 02:29:48;;;;;;;1.30;1.20;;;22.90;48.50;;;;;;5114863;28;20040;-42
2024/01/25 02:32:14;;;;;;;1.95;1.42;;;22.90;48.60;;;;;;5114914;28;20053;-42
2024/01/25 02:34:40;;;;;;;1.73;1.30;;;22.90;48.30;;;;;;5120114;28;20057;-41
2024/01/25 02:37:07;;;;;;;1.20;1.10;;;22.90;48.10;;;;;;5119061;28;20034;-41
2024/01/25 02:39:33;;;;;;;1.15;1.05;;;22.90;47.80;;;;;;5120947;28;20028;-42
2024/01/25 02:41:59;;;;;;;1.17;1.13;;;22.90;47.90;;;;;;5118364;28;20027;-42
2024/01/25 02:44:25;;;;;;;1.42;1.33;;;22.90;48.00;;;;;;5118921;28;20388;-43
2024/01/25 02:46:52;;;;;;;1.23;1.10;;;22.90;48.00;;;;;;5121247;28;20031;-42
2024/01/25 02:49:18;;;;;;;1.95;1.10;;;22.90;48.00;;;;;;5118181;28;20058;-42
2024/01/25 02:51:44;;;;;;;1.48;1.13;;;22.90;48.00;;;;;;5120227;28;20028;-43
2024/01/25 02:54:10;;;;;;;1.45;1.30;;;22.90;48.00;;;;;;5120998;28;20103;-43
2024/01/25 02:56:36;;;;;;;1.40;1.30;;;22.90;48.00;;;;;;5119847;28;20106;-43
2024/01/25 02:59:02;;;;;;;1.30;1.20;;;22.90;48.00;;;;;;5116697;28;20027;-42
2024/01/25 03:01:36;;;;;;;1.40;1.30;;;22.90;47.70;;;;;;5119130;28;20106;-42
2024/01/25 03:04:03;;;;;;;1.27;1.08;;;22.90;47.50;;;;;;5115736;28;20111;-43
2024/01/25 03:06:29;;;;;;;1.23;1.13;;;22.90;47.50;;;;;;5119979;28;20227;-42
2024/01/25 03:08:55;;;;;;;1.10;1.00;;;22.90;47.70;;;;;;5119579;28;20032;-42
2024/01/25 03:11:21;;;;;;;2.00;1.20;;;22.90;47.70;;;;;;5120428;28;20039;-43
2024/01/25 03:13:47;;;;;;;1.25;1.00;;;23.00;47.90;;;;;;5113078;28;20023;-42
2024/01/25 03:16:13;;;;;;;1.23;1.13;;;23.00;47.90;;;;;;5113940;28;20119;-42
2024/01/25 03:18:39;;;;;;;1.20;1.10;;;23.00;48.00;;;;;;5112967;28;20031;-42
2024/01/25 03:21:06;;;;;;;1.20;1.00;;;22.90;47.90;;;;;;5114070;28;20024;-43
2024/01/25 03:23:32;;;;;;;0.95;0.90;;;22.90;47.90;;;;;;5113825;28;20110;-43
2024/01/25 03:25:58;;;;;;;1.00;0.93;;;23.00;48.00;;;;;;5112999;28;20034;-43
2024/01/25 03:28:24;;;;;;;1.10;1.00;;;23.00;48.00;;;;;;5113363;28;20066;-43
2024/01/25 03:30:50;;;;;;;1.10;1.00;;;23.00;48.00;;;;;;5113088;27;20046;-42
2024/01/25 03:33:17;;;;;;;1.40;1.27;;;23.00;47.80;;;;;;5111610;28;20057;-43
2024/01/25 03:35:43;;;;;;;1.17;0.90;;;23.00;47.70;;;;;;5111918;28;20047;-42
2024/01/25 03:38:09;;;;;;;1.25;0.98;;;23.00;47.70;;;;;;5112545;28;20047;-42
2024/01/25 03:40:35;;;;;;;1.23;1.00;;;23.00;47.80;;;;;;5112849;28;20051;-42
2024/01/25 03:43:01;;;;;;;1.05;0.93;;;23.00;47.80;;;;;;5113478;28;20024;-42
2024/01/25 03:45:29;;;;;;;1.05;0.95;;;23.00;47.80;;;;;;5121354;28;20091;-42
2024/01/25 03:47:55;;;;;;;0.88;0.80;;;23.00;47.90;;;;;;5120760;28;20039;-43
2024/01/25 03:50:21;;;;;;;1.00;0.90;;;23.00;47.90;;;;;;5115862;28;20040;-42
2024/01/25 03:52:47;;;;;;;1.00;0.80;;;23.00;47.90;;;;;;5116636;28;20748;-42
2024/01/25 03:55:14;;;;;;;1.25;0.95;;;23.00;47.90;;;;;;5118270;28;20060;-42
2024/01/25 03:57:40;;;;;;;1.25;0.93;;;23.00;47.90;;;;;;5116693;28;20081;-42
2024/01/25 04:00:07;;;;;;;0.95;0.85;;;23.00;47.70;;;;;;5110902;28;20035;-42
2024/01/25 04:02:33;;;;;;;1.08;0.80;;;23.00;47.70;;;;;;5111999;28;20024;-43
2024/01/25 04:04:59;;;;;;;1.70;1.00;;;23.00;47.80;;;;;;5106327;28;20057;-44
2024/01/25 04:07:25;;;;;;;1.27;0.90;;;23.00;47.80;;;;;;5114060;28;20135;-42
2024/01/25 04:09:51;;;;;;;1.65;1.08;;;23.00;48.00;;;;;;5116009;28;20879;-42
2024/01/25 04:12:18;;;;;;;1.10;1.00;;;23.00;48.00;;;;;;5111213;28;20028;-42
2024/01/25 04:14:44;;;;;;;1.02;0.80;;;23.00;48.10;;;;;;5114551;28;20038;-42
2024/01/25 04:17:10;;;;;;;0.95;0.80;;;23.00;48.60;;;;;;5112410;28;20111;-42
2024/01/25 04:19:36;;;;;;;0.88;0.77;;;23.00;48.00;;;;;;5116621;28;20448;-42
2024/01/25 04:22:03;;;;;;;0.73;0.70;;;23.00;48.10;;;;;;5116209;28;20142;-42
2024/01/25 04:24:29;;;;;;;1.55;0.80;;;23.00;48.00;;;;;;5111841;28;20111;-42
2024/01/25 04:26:55;;;;;;;1.02;0.80;;;23.00;47.90;;;;;;5103733;28;20535;-42
2024/01/25 04:29:21;;;;;;;1.25;0.80;;;23.00;47.80;;;;;;5107393;28;20043;-43
2024/01/25 04:31:48;;;;;;;1.27;0.77;;;23.00;47.70;;;;;;5106320;28;20048;-43
2024/01/25 04:34:14;;;;;;;0.95;0.70;;;23.00;47.80;;;;;;5114086;28;20059;-42
2024/01/25 04:36:41;;;;;;;0.98;0.95;;;23.00;48.00;;;;;;5116618;28;20036;-42
2024/01/25 04:39:07;;;;;;;0.75;0.75;;;23.00;47.90;;;;;;5112319;28;20063;-42
2024/01/25 04:41:33;;;;;;;0.88;0.85;;;23.00;48.10;;;;;;5114573;28;20034;-43
2024/01/25 04:43:59;;;;;;;1.15;0.90;;;23.00;48.00;;;;;;5105897;28;20036;-42
2024/01/25 04:46:26;;;;;;;0.95;0.70;;;23.00;48.10;;;;;;5104117;28;20024;-43
2024/01/25 04:48:52;;;;;;;0.60;0.60;;;23.00;48.10;;;;;;5114868;28;20062;-43
2024/01/25 04:51:22;;;;;;;1.05;0.90;;;23.00;47.90;;;;;;5110710;28;20157;-42
2024/01/25 04:53:48;;;;;;;0.90;0.70;;;23.00;47.90;;;;;;5106922;28;20020;-42
2024/01/25 04:56:14;;;;;;;0.70;0.70;;;22.90;47.70;;;;;;5115602;28;20135;-43
2024/01/25 04:58:40;;;;;;;0.98;0.73;;;23.00;47.80;;;;;;5112161;28;20028;-42
2024/01/25 05:01:07;;;;;;;1.40;0.70;;;23.00;48.00;;;;;;5113239;28;20024;-42
2024/01/25 05:03:33;;;;;;;0.67;0.57;;;23.00;47.90;;;;;;5116351;28;20035;-42
2024/01/25 05:06:00;;;;;;;0.68;0.65;;;23.00;48.00;;;;;;5117446;27;20023;-41
2024/01/25 05:08:27;;;;;;;0.80;0.80;;;23.00;48.00;;;;;;5120319;28;20126;-42
2024/01/25 05:10:53;;;;;;;0.95;0.80;;;23.00;48.10;;;;;;5120300;28;20065;-42
2024/01/25 05:13:19;;;;;;;2.10;0.70;;;23.00;48.10;;;;;;5121855;28;20342;-42
2024/01/25 05:15:45;;;;;;;1.48;0.68;;;23.00;48.20;;;;;;5120084;28;20034;-42
2024/01/25 05:18:11;;;;;;;0.70;0.70;;;23.00;47.90;;;;;;5119550;28;20028;-43
2024/01/25 05:20:37;;;;;;;0.80;0.80;;;23.00;47.80;;;;;;5114152;28;20118;-42
2024/01/25 05:23:04;;;;;;;1.27;0.77;;;23.00;47.80;;;;;;5119327;28;20043;-42
2024/01/25 05:25:30;;;;;;;1.07;0.97;;;23.00;47.90;;;;;;5122179;28;20032;-43
2024/01/25 05:27:56;;;;;;;1.77;0.77;;;23.00;48.00;;;;;;5119357;28;21647;-43
2024/01/25 05:30:26;;;;;;;1.07;0.63;;;23.00;48.00;;;;;;5118565;28;20043;-43
2024/01/25 05:33:14;;;;;;;2.13;0.60;;;23.00;48.00;;;;;;5073581;28;20037;-43
2024/01/25 05:35:40;;;;;;;0.60;0.60;;;23.00;48.10;;;;;;5078036;28;20036;-42
2024/01/25 05:38:06;;;;;;;0.93;0.80;;;23.00;48.20;;;;;;5071687;28;20037;-42
2024/01/25 05:40:32;;;;;;;1.70;0.70;;;23.00;48.10;;;;;;5075051;28;20024;-42
2024/01/25 05:42:59;;;;;;;0.88;0.70;;;23.00;48.00;;;;;;5078723;28;20820;-43
2024/01/25 05:45:26;;;;;;;0.80;0.80;;;23.00;47.90;;;;;;5075251;28;20040;-43
2024/01/25 05:47:52;;;;;;;1.77;0.90;;;23.00;47.90;;;;;;5074851;28;20033;-43
2024/01/25 05:50:18;;;;;;;1.40;0.80;;;22.90;47.70;;;;;;5078167;28;20131;-43
2024/01/25 05:52:44;;;;;;;0.82;0.70;;;23.00;47.80;;;;;;5073818;28;20626;-43
2024/01/25 05:55:11;;;;;;;1.15;0.70;;;23.00;48.00;;;;;;5073154;28;20033;-42
2024/01/25 05:57:37;;;;;;;1.60;0.73;;;23.00;48.00;;;;;;5073086;28;20056;-43
2024/01/25 06:00:07;;;;;;;1.02;0.80;;;23.00;48.00;;;;;;5073166;28;20143;-42
2024/01/25 06:02:33;;;;;;;1.35;0.80;;;23.00;48.10;;;;;;5073885;28;20132;-42
2024/01/25 06:04:59;;;;;;;0.73;0.63;;;23.00;48.20;;;;;;5077575;28;20060;-42
2024/01/25 06:07:26;;;;;;;1.43;0.70;;;22.90;48.10;;;;;;5073197;28;20119;-42
2024/01/25 06:09:53;;;;;;;1.30;0.73;;;22.90;48.20;;;;;;5089179;28;20054;-42
2024/01/25 06:12:19;;;;;;;0.70;0.52;;;22.90;47.90;;;;;;5121277;28;20028;-43
2024/01/25 06:14:45;;;;;;;0.70;0.70;;;22.90;48.00;;;;;;5115961;28;20036;-43
2024/01/25 06:17:11;;;;;;;1.60;0.57;;;22.90;47.80;;;;;;5119771;28;20030;-42
2024/01/25 06:19:37;;;;;;;1.20;0.60;;;22.90;47.90;;;;;;5119053;28;20039;-43
2024/01/25 06:22:04;;;;;;;0.88;0.68;;;22.90;48.00;;;;;;5120903;28;20023;-42
2024/01/25 06:24:30;;;;;;;0.97;0.60;;;22.90;48.00;;;;;;5118122;28;20111;-42
2024/01/25 06:26:56;;;;;;;1.00;0.80;;;22.90;48.10;;;;;;5120023;28;20765;-43
2024/01/25 06:29:24;;;;;;;3.00;0.80;;;22.90;48.10;;;;;;5114094;28;20384;-42
2024/01/25 06:31:50;;;;;;;1.17;0.70;;;22.90;48.20;;;;;;5119322;28;20040;-42
2024/01/25 06:34:16;;;;;;;0.50;0.50;;;22.90;48.20;;;;;;5118927;28;20406;-43
2024/01/25 06:36:42;;;;;;;0.90;0.80;;;22.90;48.00;;;;;;5118669;28;20035;-42
2024/01/25 06:39:08;;;;;;;1.58;0.80;;;22.90;48.50;;;;;;5116051;28;20034;-42
2024/01/25 06:41:34;;;;;;;0.63;0.60;;;22.90;47.80;;;;;;5119015;28;20023;-42
2024/01/25 06:44:00;;;;;;;0.77;0.68;;;22.90;47.80;;;;;;5115992;28;20030;-42
2024/01/25 06:46:27;;;;;;;0.80;0.60;;;22.90;48.00;;;;;;5117522;28;20091;-42
2024/01/25 06:48:53;;;;;;;0.90;0.70;;;22.90;47.90;;;;;;5119163;28;20028;-42
2024/01/25 06:51:19;;;;;;;0.82;0.60;;;22.90;48.00;;;;;;5120689;28;20038;-42
2024/01/25 06:53:45;;;;;;;1.17;0.70;;;22.90;48.10;;;;;;5115462;28;20066;-42
2024/01/25 06:56:11;;;;;;;0.63;0.63;;;22.90;48.10;;;;;;5119694;28;20024;-42
2024/01/25 06:58:37;;;;;;;0.70;0.57;;;22.90;48.20;;;;;;5119430;28;20030;-42
2024/01/25 07:01:07;;;;;;;1.35;0.60;;;22.90;48.10;;;;;;5116507;28;20023;-43
2024/01/25 07:03:33;;;;;;;0.70;0.50;;;22.90;48.10;;;;;;5110020;28;20032;-42
2024/01/25 07:05:59;;;;;;;0.73;0.60;;;22.90;47.90;;;;;;5113386;28;20028;-42
2024/01/25 07:08:25;;;;;;;0.55;0.55;;;22.90;47.80;;;;;;5118541;28;20283;-43
2024/01/25 07:10:52;;;;;;;1.55;0.63;;;22.90;48.00;;;;;;5117494;28;20098;-42
2024/01/25 07:13:18;;;;;;;0.93;0.60;;;22.90;48.10;;;;;;5111764;27;20028;-42
2024/01/25 07:15:44;;;;;;;2.15;0.70;;;22.90;48.20;;;;;;5112139;28;20039;-43
2024/01/25 07:18:11;;;;;;;0.60;0.50;;;22.90;48.20;;;;;;5112098;28;20032;-42
2024/01/25 07:20:37;;;;;;;0.65;0.60;;;22.90;48.10;;;;;;5113853;28;20031;-43
2024/01/25 07:23:03;;;;;;;0.82;0.60;;;22.90;48.10;;;;;;5112702;28;20032;-42
2024/01/25 07:25:29;;;;;;;0.82;0.50;;;22.90;48.10;;;;;;5111828;28;20031;-42
2024/01/25 07:27:55;;;;;;;2.63;0.55;;;22.90;48.10;;;;;;5108583;28;20047;-42
2024/01/25 07:30:22;;;;;;;0.63;0.50;;;22.90;48.10;;;;;;5110548;28;20072;-42
2024/01/25 07:32:49;;;;;;;0.82;0.50;;;22.90;48.10;;;;;;5106660;28;20092;-43
2024/01/25 07:35:15;;;;;;;2.42;0.70;;;22.90;48.20;;;;;;5108421;28;20036;-42
2024/01/25 07:37:42;;;;;;;1.15;0.70;;;22.90;48.40;;;;;;5110961;28;20028;-42
2024/01/25 07:40:11;;;;;;;1.30;0.57;;;22.90;49.00;;;;;;5114141;28;20055;-42
2024/01/25 07:42:37;;;;;;;0.50;0.50;;;22.90;48.40;;;;;;5107946;28;20039;-43
2024/01/25 07:45:04;;;;;;;1.13;0.40;;;22.90;48.50;;;;;;5114476;28;20035;-41
2024/01/25 07:47:30;;;;;;;0.82;0.50;;;22.90;48.50;;;;;;5109199;28;20032;-40
2024/01/25 07:49:56;;;;;;;0.47;0.40;;;22.90;48.30;;;;;;5109571;28;20066;-39
2024/01/25 07:52:22;;;;;;;0.75;0.47;;;22.90;48.50;;;;;;5115389;28;20038;-40
2024/01/25 07:54:48;;;;;;;1.02;0.40;;;22.90;48.10;;;;;;5111837;28;20024;-41
2024/01/25 07:57:15;;;;;;;1.13;0.60;;;22.90;48.20;;;;;;5112710;28;20038;-40
2024/01/25 07:59:41;;;;;;;0.70;0.60;;;22.90;48.20;;;;;;5109267;28;20648;-39
2024/01/25 08:02:07;;;;;;;0.52;0.50;;;22.90;48.30;;;;;;5105890;28;20043;-41
2024/01/25 08:04:33;;;;;;;0.60;0.50;;;22.90;48.20;;;;;;5113155;28;20388;-40
2024/01/25 08:06:59;;;;;;;1.00;0.50;;;22.90;48.30;;;;;;5107154;28;20036;-41
2024/01/25 08:09:25;;;;;;;0.95;0.45;;;22.90;48.30;;;;;;5111511;28;20028;-40
2024/01/25 08:11:52;;;;;;;0.40;0.40;;;22.90;48.30;;;;;;5109646;28;20081;-40
2024/01/25 08:14:18;;;;;;;0.50;0.40;;;22.90;48.10;;;;;;5116381;28;20157;-40
2024/01/25 08:16:44;;;;;;;1.35;0.50;;;22.90;48.00;;;;;;5120008;28;20091;-40
2024/01/25 08:19:10;;;;;;;0.52;0.47;;;22.90;48.10;;;;;;5118703;28;20112;-41
2024/01/25 08:21:37;;;;;;;1.13;0.50;;;22.90;48.20;;;;;;5122314;28;20027;-42
2024/01/25 08:24:04;;;;;;;0.52;0.40;;;22.90;48.30;;;;;;5113963;28;20089;-41
2024/01/25 08:26:30;;;;;;;1.20;0.50;;;22.90;48.20;;;;;;5113330;28;20107;-43
2024/01/25 08:28:56;;;;;;;0.90;0.55;;;22.90;48.10;;;;;;5105340;28;20065;-42
2024/01/25 08:31:22;;;;;;;0.40;0.40;;;22.90;48.30;;;;;;5115334;28;20752;-42
2024/01/25 08:33:49;;;;;;;0.50;0.40;;;22.90;48.30;;;;;;5109177;28;20035;-42
2024/01/25 08:36:18;;;;;;;1.23;0.52;;;22.90;48.30;;;;;;5110284;28;20123;-42
2024/01/25 08:38:44;;;;;;;0.85;0.30;;;22.90;48.10;;;;;;5108787;28;20048;-41
2024/01/25 08:41:11;;;;;;;0.40;0.30;;;22.90;48.00;;;;;;5109987;28;20035;-41
2024/01/25 08:43:37;;;;;;;0.67;0.60;;;22.90;48.10;;;;;;5110810;28;20044;-41
2024/01/25 08:46:04;;;;;;;0.80;0.40;;;22.90;48.20;;;;;;5113357;28;20032;-42
2024/01/25 08:48:30;;;;;;;3.00;0.50;;;22.90;48.20;;;;;;5113762;28;20636;-41
2024/01/25 08:50:56;;;;;;;1.23;0.60;;;22.90;48.80;;;;;;5110296;28;20189;-41
2024/01/25 08:53:26;;;;;;;0.50;0.45;;;22.90;48.20;;;;;;5114668;28;20031;-40
2024/01/25 08:55:53;;;;;;;2.65;0.40;;;22.90;48.10;;;;;;5112507;28;20031;-42
2024/01/25 08:58:20;;;;;;;1.38;0.50;;;22.90;48.20;;;;;;5110761;28;20053;-41
2024/01/25 09:00:46;;;;;;;0.85;0.30;;;22.90;48.30;;;;;;5111123;28;20763;-42
2024/01/25 09:03:12;;;;;;;0.50;0.40;;;22.90;48.30;;;;;;5115413;27;20099;-42
2024/01/25 09:05:44;;;;;;;2.00;0.70;;;22.90;48.10;;;;;;5111554;28;20024;-42
2024/01/25 09:08:12;;;;;;;0.40;0.40;;;22.90;48.40;;;;;;5114705;28;20114;-42
2024/01/25 09:10:38;;;;;;;1.67;0.30;;;22.90;48.30;;;;;;5111127;28;20047;-40
2024/01/25 09:13:05;;;;;;;0.90;0.40;;;22.90;48.40;;;;;;5114170;28;20024;-42
2024/01/25 09:15:31;;;;;;;1.13;0.40;;;22.90;48.30;;;;;;5109212;28;20383;-42
2024/01/25 09:17:57;;;;;;;2.00;0.40;;;22.90;48.40;;;;;;5118557;28;20076;-42
2024/01/25 09:20:23;;;;;;;0.45;0.35;;;22.90;48.40;;;;;;5117819;28;20422;-43
2024/01/25 09:22:49;;;;;;;1.38;0.40;;;22.90;48.30;;;;;;5111972;27;20027;-42
2024/01/25 09:25:15;;;;;;;1.17;0.50;;;22.90;48.30;;;;;;5112634;28;20032;-43
2024/01/25 09:27:41;;;;;;;1.58;0.50;;;22.90;48.30;;;;;;5112804;28;20047;-42
2024/01/25 09:30:08;;;;;;;1.58;0.40;;;22.90;48.20;;;;;;5110947;28;20036;-41
2024/01/25 09:32:34;;;;;;;0.47;0.30;;;22.90;48.20;;;;;;5109957;28;20045;-42
2024/01/25 09:35:00;;;;;;;2.15;0.50;;;22.90;48.30;;;;;;5110972;27;20291;-40
2024/01/25 09:37:26;;;;;;;0.70;0.40;;;22.90;48.40;;;;;;5118756;28;20030;-41
2024/01/25 09:39:53;;;;;;;0.30;0.30;;;22.90;48.50;;;;;;5119510;27;20034;-41
2024/01/25 09:42:19;;;;;;;1.33;0.45;;;22.90;48.50;;;;;;5122428;28;20103;-41
2024/01/25 09:44:45;;;;;;;2.25;0.60;;;22.90;48.50;;;;;;5116944;28;20066;-43
2024/01/25 09:47:12;;;;;;;0.80;0.30;;;22.90;48.50;;;;;;5119080;28;20519;-41
2024/01/25 09:49:38;;;;;;;1.02;0.40;;;22.90;48.40;;;;;;5110588;28;20139;-41
2024/01/25 09:52:05;;;;;;;0.52;0.40;;;22.90;48.40;;;;;;5120327;27;20480;-41
2024/01/25 09:54:40;;;;;;;0.75;0.40;;;22.90;48.30;;;;;;5111525;28;20039;-41
2024/01/25 09:57:18;;;;;;;0.47;0.30;;;22.90;48.10;;;;;;5119570;28;20061;-41
2024/01/25 09:59:45;;;;;;;0.90;0.40;;;22.90;48.20;;;;;;5120437;28;20038;-41
2024/01/25 10:02:11;;;;;;;0.60;0.40;;;22.90;48.30;;;;;;5117445;28;20050;-42
2024/01/25 10:04:37;;;;;;;1.65;0.38;;;22.90;48.30;;;;;;5113736;28;20051;-43
2024/01/25 10:07:04;;;;;;;0.47;0.40;;;22.90;48.30;;;;;;5121234;28;20031;-42
2024/01/25 10:09:42;;;;;;;0.28;0.28;;;22.90;48.30;;;;;;5119099;28;20044;-42
2024/01/25 10:12:08;;;;;;;0.98;0.40;;;22.90;48.30;;;;;;5115834;28;20125;-42
2024/01/25 10:14:34;;;;;;;0.40;0.40;;;22.90;48.30;;;;;;5122110;28;20020;-42
2024/01/25 10:17:01;;;;;;;0.32;0.30;;;22.90;48.30;;;;;;5107232;28;20024;-43
2024/01/25 10:19:27;;;;;;;0.40;0.30;;;22.90;48.40;;;;;;5112186;28;20028;-42
2024/01/25 10:21:53;;;;;;;0.50;0.20;;;22.90;48.30;;;;;;5113866;28;20036;-41
2024/01/25 10:24:19;;;;;;;0.60;0.40;;;22.90;48.20;;;;;;5119047;28;20233;-40
2024/01/25 10:26:46;;;;;;;0.80;0.30;;;22.90;48.30;;;;;;5117536;27;20028;-41
2024/01/25 10:29:12;;;;;;;0.60;0.32;;;22.90;48.40;;;;;;5118691;27;20146;-42
2024/01/25 10:31:40;;;;;;;0.88;0.35;;;22.90;48.40;;;;;;5106235;28;20032;-41
2024/01/25 10:34:07;;;;;;;0.52;0.30;;;22.90;48.40;;;;;;5118788;28;20354;-40
2024/01/25 10:36:33;;;;;;;0.35;0.30;;;22.90;48.40;;;;;;5123937;27;20383;-42
2024/01/25 10:39:00;;;;;;;0.93;0.30;;;22.90;48.50;;;;;;5107913;28;20032;-41
2024/01/25 10:41:26;;;;;;;2.13;0.40;;;22.90;48.40;;;;;;5115758;28;20035;-40
2024/01/25 10:43:52;;;;;;;0.30;0.30;;;22.90;48.50;;;;;;5116395;27;20280;-41
2024/01/25 10:46:18;;;;;;;0.40;0.30;;;22.90;48.40;;;;;;5107917;28;20031;-41
2024/01/25 10:48:44;;;;;;;0.30;0.30;;;22.90;48.30;;;;;;5109253;28;20571;-41
2024/01/25 10:51:11;;;;;;;0.55;0.30;;;22.90;48.40;;;;;;5112189;28;20039;-41
2024/01/25 10:53:37;;;;;;;1.00;0.20;;;22.90;48.50;;;;;;5108256;28;20042;-40
2024/01/25 10:56:03;;;;;;;0.55;0.28;;;22.90;48.40;;;;;;5111746;28;20031;-41
2024/01/25 10:58:35;;;;;;;1.13;0.30;;;22.90;48.60;;;;;;5111370;28;20058;-40
2024/01/25 11:01:03;;;;;;;0.70;0.30;;;22.90;48.50;;;;;;5110617;28;20024;-41
2024/01/25 11:03:30;;;;;;;0.52;0.40;;;22.90;48.60;;;;;;5105643;28;20016;-40
2024/01/25 11:06:17;;;;;;;0.77;0.40;;;23.00;48.60;;;;;;5110713;28;20031;-40
2024/01/25 11:08:43;;;;;;;0.40;0.30;;;23.00;48.60;;;;;;5129334;27;20567;-38
2024/01/25 11:11:12;;;;;;;0.43;0.30;;;23.00;48.60;;;;;;5101060;28;20074;-40
2024/01/25 11:13:42;;;;;;;0.30;0.30;;;23.00;48.60;;;;;;5103210;28;20740;-41
2024/01/25 11:16:13;;;;;;;0.40;0.30;;;22.90;49.10;;;;;;5104266;28;20869;-40
2024/01/25 11:18:50;;;;;;;0.45;0.22;;;22.90;48.70;;;;;;5100763;28;20032;-42
2024/01/25 11:21:29;;;;;;;0.80;0.40;;;22.90;48.50;;;;;;5105671;28;20548;-40
2024/01/25 11:24:02;;;;;;;0.38;0.25;;;23.00;48.60;;;;;;5138169;27;20035;-41
2024/01/25 11:26:29;;;;;;;0.93;0.38;;;23.00;48.70;;;;;;5110873;28;20023;-40
2024/01/25 11:28:56;;;;;;;0.50;0.30;;;22.90;48.60;;;;;;5109451;28;20107;-41
2024/01/25 11:31:23;;;;;;;0.38;0.20;;;22.90;48.60;;;;;;5107189;28;20046;-41
2024/01/25 11:33:50;;;;;;;0.30;0.20;;;22.90;48.70;;;;;;5112053;28;20024;-41
2024/01/25 11:36:20;;;;;;;0.40;0.30;;;23.00;48.80;;;;;;5107916;28;20026;-41
2024/01/25 11:38:46;;;;;;;0.20;0.20;;;23.00;48.80;;;;;;5113047;28;20028;-39
2024/01/25 11:41:12;;;;;;;0.35;0.20;;;23.00;48.70;;;;;;5106531;28;20094;-42
2024/01/25 11:43:38;;;;;;;0.22;0.17;;;23.00;48.80;;;;;;5110160;28;20047;-41
2024/01/25 11:46:04;;;;;;;0.28;0.20;;;23.00;48.90;;;;;;5108533;28;20055;-43
2024/01/25 11:48:30;;;;;;;0.30;0.20;;;23.00;48.80;;;;;;5108446;28;20151;-42
2024/01/25 11:50:58;;;;;;;0.95;0.40;;;23.00;48.90;;;;;;5109578;28;20055;-41
2024/01/25 11:53:24;;;;;;;0.70;0.20;;;23.00;48.80;;;;;;5109267;28;20046;-41
2024/01/25 11:55:50;;;;;;;2.05;0.25;;;23.00;48.70;;;;;;5112409;28;20081;-40
2024/01/25 11:58:16;;;;;;;0.30;0.10;;;23.00;48.70;;;;;;5111678;28;20020;-41
2024/01/25 12:00:42;;;;;;;0.25;0.10;;;23.00;48.90;;;;;;5111646;28;20053;-39
2024/01/25 12:03:09;;;;;;;0.35;0.10;;;23.00;48.90;;;;;;5110987;28;20023;-38
2024/01/25 12:05:35;;;;;;;0.10;0.10;;;23.00;49.00;;;;;;5104941;28;20031;-40
2024/01/25 12:08:01;;;;;;;0.20;0.10;;;23.00;49.10;;;;;;5106335;28;20031;-42
2024/01/25 12:10:27;;;;;;;0.20;0.20;;;23.00;49.10;;;;;;5108965;28;20221;-41
2024/01/25 12:12:53;;;;;;;0.40;0.20;;;23.00;49.20;;;;;;5108920;28;20028;-42
2024/01/25 12:15:19;;;;;;;0.40;0.20;;;23.00;49.20;;;;;;5110930;28;20418;-40
2024/01/25 12:17:46;;;;;;;0.33;0.20;;;23.00;49.10;;;;;;5115801;27;20797;-42
2024/01/25 12:20:12;;;;;;;0.10;0.10;;;23.00;49.10;;;;;;5117719;28;20024;-42
2024/01/25 12:22:38;;;;;;;0.47;0.20;;;23.00;48.90;;;;;;5114436;28;20496;-40
2024/01/25 12:25:08;;;;;;;0.40;0.20;;;23.00;49.00;;;;;;5109938;28;20023;-41
2024/01/25 12:27:34;;;;;;;0.95;0.20;;;23.00;49.00;;;;;;5113596;28;20048;-41
2024/01/25 12:30:00;;;;;;;0.25;0.15;;;23.00;49.10;;;;;;5118710;28;20054;-40
2024/01/25 12:32:26;;;;;;;0.32;0.20;;;23.00;49.10;;;;;;5113012;28;20020;-42
2024/01/25 12:35:07;;;;;;;0.30;0.30;;;23.00;49.10;;;;;;5118327;28;20028;-40
2024/01/25 12:37:33;;;;;;;0.70;0.10;;;23.00;49.70;;;;;;5120177;28;20044;-40
2024/01/25 12:40:00;;;;;;;0.35;0.20;;;23.00;49.20;;;;;;5115755;28;20103;-40
2024/01/25 12:42:26;;;;;;;0.20;0.10;;;23.00;49.30;;;;;;5112135;27;20054;-40
2024/01/25 12:44:54;;;;;;;0.47;0.10;;;23.00;49.20;;;;;;5117001;28;20042;-43